createdAt,value
2023-02-20T00:01:49.434Z,1.00
2023-02-20T00:04:18.221Z,0.90
2023-02-20T00:06:47.043Z,0.70
2023-02-20T00:09:15.660Z,1.10
2023-02-20T00:11:44.175Z,0.80
2023-02-20T00:14:12.948Z,0.80
2023-02-20T00:16:41.452Z,0.90
2023-02-20T00:19:10.148Z,0.70
2023-02-20T00:21:44.704Z,0.90
2023-02-20T00:24:13.283Z,0.90
2023-02-20T00:26:53.549Z,0.70
2023-02-20T00:29:24.637Z,0.80
2023-02-20T00:31:56.098Z,0.90
2023-02-20T00:34:28.509Z,0.90
2023-02-20T00:36:57.427Z,0.70
2023-02-20T00:39:25.963Z,1.10
2023-02-20T00:41:56.202Z,0.80
2023-02-20T00:44:25.760Z,1.10
2023-02-20T00:46:55.358Z,0.90
2023-02-20T00:49:23.875Z,1.10
2023-02-20T00:51:54.314Z,1.30
2023-02-20T00:54:22.899Z,1.10
2023-02-20T00:56:51.427Z,0.90
2023-02-20T00:59:19.922Z,1.20
2023-02-20T01:01:49.236Z,1.20
2023-02-20T01:04:18.359Z,0.90
2023-02-20T01:06:47.010Z,1.10
2023-02-20T01:09:15.576Z,1.30
2023-02-20T01:11:45.127Z,0.90
2023-02-20T01:14:14.842Z,0.90
2023-02-20T01:16:52.977Z,1.10
2023-02-20T01:19:24.063Z,1.00
2023-02-20T01:21:54.809Z,1.30
2023-02-20T01:24:23.378Z,1.00
2023-02-20T01:26:51.769Z,1.10
2023-02-20T01:29:20.454Z,1.30
2023-02-20T01:31:51.075Z,0.90
2023-02-20T01:34:21.173Z,1.00
2023-02-20T01:37:13.268Z,1.10
2023-02-20T01:39:42.133Z,0.90
2023-02-20T01:42:18.168Z,1.00
2023-02-20T01:44:46.631Z,1.00
2023-02-20T01:47:21.926Z,1.00
2023-02-20T01:49:59.041Z,1.40
2023-02-20T01:52:32.164Z,1.10
2023-02-20T01:55:09.035Z,0.90
2023-02-20T01:57:42.020Z,1.00
2023-02-20T02:00:15.466Z,1.00
2023-02-20T02:02:52.808Z,0.90
2023-02-20T02:05:24.552Z,1.10
2023-02-20T02:07:57.343Z,1.00
2023-02-20T02:10:32.678Z,0.90
2023-02-20T02:13:01.922Z,0.90
2023-02-20T02:15:30.580Z,1.00
2023-02-20T02:18:35.916Z,1.00
2023-02-20T02:21:39.440Z,1.00
2023-02-20T02:24:32.280Z,1.00
2023-02-20T02:27:28.814Z,0.70
2023-02-20T02:30:31.346Z,0.70
2023-02-20T02:33:09.065Z,0.80
2023-02-20T02:36:05.227Z,0.80
2023-02-20T02:38:46.928Z,0.80
2023-02-20T02:41:22.219Z,0.70
2023-02-20T02:44:02.723Z,0.80
2023-02-20T02:47:03.677Z,0.60
2023-02-20T02:49:44.005Z,1.00
2023-02-20T02:52:13.313Z,0.50
2023-02-20T02:54:43.661Z,0.80
2023-02-20T02:57:38.543Z,0.60
2023-02-20T03:00:11.832Z,0.80
2023-02-20T03:02:49.832Z,0.70
2023-02-20T03:05:22.803Z,0.60
2023-02-20T03:07:56.329Z,0.70
2023-02-20T03:10:32.201Z,0.70
2023-02-20T03:13:05.771Z,0.70
2023-02-20T03:15:46.060Z,0.50
2023-02-20T03:18:39.297Z,0.60
2023-02-20T03:21:17.465Z,0.80
2023-02-20T03:23:54.582Z,1.10
2023-02-20T03:26:32.211Z,0.80
2023-02-20T03:29:24.710Z,0.60
2023-02-20T03:32:16.842Z,1.00
2023-02-20T03:35:07.497Z,0.90
2023-02-20T03:37:57.104Z,0.60
2023-02-20T03:40:47.178Z,0.70
2023-02-20T03:43:26.157Z,0.70
2023-02-20T03:46:12.124Z,1.00
2023-02-20T03:49:13.013Z,1.00
2023-02-20T03:51:44.481Z,0.70
2023-02-20T03:54:20.423Z,0.70
2023-02-20T03:56:54.376Z,0.80
2023-02-20T03:59:34.275Z,0.60
2023-02-20T04:02:08.171Z,0.80
2023-02-20T04:04:44.506Z,0.70
2023-02-20T04:07:19.768Z,0.70
2023-02-20T04:09:48.514Z,0.50
2023-02-20T04:12:27.925Z,0.90
2023-02-20T04:14:59.093Z,1.00
2023-02-20T04:17:42.842Z,1.10
2023-02-20T04:20:11.963Z,0.60
2023-02-20T04:22:48.867Z,0.80
2023-02-20T04:25:40.139Z,0.70
2023-02-20T04:28:09.622Z,0.70
2023-02-20T04:30:47.529Z,0.80
2023-02-20T04:33:18.632Z,0.90
2023-02-20T04:35:47.626Z,0.80
2023-02-20T04:38:16.377Z,0.80
2023-02-20T04:40:44.924Z,0.90
2023-02-20T04:43:13.392Z,0.70
2023-02-20T04:45:42.022Z,1.10
2023-02-20T04:48:10.998Z,1.00
2023-02-20T04:50:41.344Z,0.90
2023-02-20T04:53:10.202Z,1.00
2023-02-20T04:55:39.116Z,0.90
2023-02-20T04:58:10.988Z,1.30
2023-02-20T05:00:52.257Z,0.90
2023-02-20T05:03:20.738Z,1.10
2023-02-20T05:05:49.177Z,1.10
2023-02-20T05:08:17.759Z,1.30
2023-02-20T05:10:47.078Z,1.00
2023-02-20T05:13:15.585Z,0.90
2023-02-20T05:15:44.171Z,0.80
2023-02-20T05:18:12.708Z,0.80
2023-02-20T05:20:59.881Z,1.10
2023-02-20T05:23:28.326Z,1.20
2023-02-20T05:25:56.734Z,1.00
2023-02-20T05:28:25.597Z,1.30
2023-02-20T05:30:54.072Z,1.20
2023-02-20T05:33:22.502Z,0.70
2023-02-20T05:35:50.938Z,1.00
2023-02-20T05:38:20.301Z,1.30
2023-02-20T05:40:48.840Z,1.00
2023-02-20T05:43:18.222Z,1.30
2023-02-20T05:45:46.733Z,1.00
2023-02-20T05:48:15.674Z,0.90
2023-02-20T05:50:44.494Z,1.30
2023-02-20T05:53:18.841Z,1.00
2023-02-20T05:55:47.363Z,1.20
2023-02-20T05:58:16.324Z,1.10
2023-02-20T06:00:44.775Z,1.10
2023-02-20T06:03:16.092Z,1.10
2023-02-20T06:05:45.145Z,1.20
2023-02-20T06:08:13.630Z,1.20
2023-02-20T06:10:42.159Z,0.90
2023-02-20T06:13:10.672Z,1.10
2023-02-20T06:15:39.421Z,1.30
2023-02-20T06:18:08.483Z,1.10
2023-02-20T06:20:37.129Z,1.40
2023-02-20T06:23:05.624Z,1.20
2023-02-20T06:25:34.222Z,1.00
2023-02-20T06:28:02.645Z,1.40
2023-02-20T06:30:31.400Z,1.40
2023-02-20T06:32:59.884Z,1.10
2023-02-20T06:35:28.329Z,1.30
2023-02-20T06:37:56.892Z,1.20
2023-02-20T06:40:25.381Z,1.30
2023-02-20T06:42:54.349Z,1.30
2023-02-20T06:45:22.879Z,1.20
2023-02-20T06:47:51.413Z,1.50
2023-02-20T06:50:20.147Z,1.50
2023-02-20T06:52:48.616Z,1.20
2023-02-20T06:55:17.157Z,1.30
2023-02-20T06:57:45.571Z,1.60
2023-02-20T07:00:15.167Z,1.30
2023-02-20T07:02:43.848Z,1.10
2023-02-20T07:05:12.866Z,1.20
2023-02-20T07:07:41.430Z,1.20
2023-02-20T07:10:10.413Z,1.10
2023-02-20T07:12:39.964Z,1.70
2023-02-20T07:15:12.855Z,1.30
2023-02-20T07:17:41.279Z,1.20
2023-02-20T07:20:10.688Z,1.50
2023-02-20T07:22:39.191Z,1.20
2023-02-20T07:25:07.947Z,1.10
2023-02-20T07:27:36.334Z,1.70
2023-02-20T07:30:05.430Z,1.40
2023-02-20T07:32:34.054Z,1.30
2023-02-20T07:35:05.642Z,1.70
2023-02-20T07:37:35.929Z,1.20
2023-02-20T07:40:05.001Z,0.90
2023-02-20T07:42:33.466Z,1.00
2023-02-20T07:45:11.410Z,1.50
2023-02-20T07:47:39.833Z,1.50
2023-02-20T07:50:08.654Z,1.10
2023-02-20T07:52:37.574Z,1.40
2023-02-20T07:55:06.085Z,1.30
2023-02-20T07:57:37.293Z,1.80
2023-02-20T08:00:07.344Z,1.20
2023-02-20T08:02:41.642Z,1.60
2023-02-20T08:05:10.888Z,1.70
2023-02-20T08:07:39.911Z,1.70
2023-02-20T08:10:08.699Z,1.20
2023-02-20T08:12:37.137Z,1.60
2023-02-20T08:15:05.949Z,1.30
2023-02-20T08:17:46.082Z,1.30
2023-02-20T08:20:17.913Z,1.30
2023-02-20T08:22:47.581Z,1.40
2023-02-20T08:25:18.050Z,1.40
2023-02-20T08:27:49.165Z,1.70
2023-02-20T08:30:27.495Z,1.20
2023-02-20T08:32:56.310Z,1.30
2023-02-20T08:35:25.208Z,1.50
2023-02-20T08:37:53.915Z,1.10
2023-02-20T08:40:22.493Z,1.80
2023-02-20T08:42:51.388Z,1.30
2023-02-20T08:45:20.125Z,1.40
2023-02-20T08:47:50.065Z,1.70
2023-02-20T08:50:19.433Z,1.50
2023-02-20T08:52:48.550Z,1.30
2023-02-20T08:55:17.157Z,1.60
2023-02-20T08:57:46.372Z,1.50
2023-02-20T09:00:17.719Z,1.30
2023-02-20T09:02:49.326Z,1.20
2023-02-20T09:05:18.557Z,1.70
2023-02-20T09:07:47.038Z,1.50
2023-02-20T09:10:15.498Z,1.50
2023-02-20T09:12:44.081Z,1.60
2023-02-20T09:15:12.628Z,1.30
2023-02-20T09:17:41.382Z,1.40
2023-02-20T09:20:11.090Z,2.20
2023-02-20T09:22:39.618Z,2.00
2023-02-20T09:25:08.262Z,1.50
2023-02-20T09:27:36.748Z,1.80
2023-02-20T09:30:06.271Z,2.00
2023-02-20T09:32:34.808Z,2.10
2023-02-20T09:35:03.688Z,1.80
2023-02-20T09:37:32.355Z,2.00
2023-02-20T09:40:00.805Z,1.90
2023-02-20T09:42:44.374Z,1.50
2023-02-20T09:45:24.083Z,2.10
2023-02-20T09:48:03.568Z,1.50
2023-02-20T09:50:45.044Z,1.80
2023-02-20T09:53:48.873Z,2.00
2023-02-20T09:56:21.852Z,1.50
2023-02-20T09:59:04.818Z,2.00
2023-02-20T10:01:35.873Z,1.50
2023-02-20T10:04:14.184Z,1.70
2023-02-20T10:06:45.428Z,1.70
2023-02-20T10:09:15.396Z,1.60
2023-02-20T10:12:09.313Z,1.80
2023-02-20T10:14:59.000Z,1.90
2023-02-20T10:17:47.119Z,2.00
2023-02-20T10:20:52.426Z,1.60
2023-02-20T10:23:33.088Z,1.90
2023-02-20T10:26:07.542Z,1.60
2023-02-20T10:28:36.916Z,2.10
2023-02-20T10:31:14.405Z,1.60
2023-02-20T10:34:01.533Z,2.40
2023-02-20T10:36:37.849Z,1.70
2023-02-20T10:39:17.578Z,2.10
2023-02-20T10:41:46.050Z,2.00
2023-02-20T10:44:51.768Z,1.90
2023-02-20T10:47:32.741Z,1.70
2023-02-20T10:50:09.927Z,1.60
2023-02-20T10:52:59.949Z,1.80
2023-02-20T10:55:37.193Z,1.80
2023-02-20T10:58:08.541Z,2.10
2023-02-20T11:00:45.839Z,2.10
2023-02-20T11:03:44.964Z,2.20
2023-02-20T11:06:18.954Z,1.70
2023-02-20T11:08:47.799Z,1.50
2023-02-20T11:11:29.862Z,1.90
2023-02-20T11:14:00.869Z,1.90
2023-02-20T11:16:36.356Z,1.60
2023-02-20T11:19:15.980Z,1.70
2023-02-20T11:21:49.667Z,1.70
2023-02-20T11:24:20.082Z,1.40
2023-02-20T11:26:53.816Z,1.50
2023-02-20T11:29:24.481Z,1.80
2023-02-20T11:31:53.283Z,1.30
2023-02-20T11:34:27.838Z,1.30
2023-02-20T11:37:04.873Z,1.20
2023-02-20T11:39:34.734Z,1.10
2023-02-20T11:42:17.317Z,1.30
2023-02-20T11:44:48.894Z,1.20
2023-02-20T11:47:20.055Z,1.40
2023-02-20T11:49:49.782Z,1.20
2023-02-20T11:52:24.729Z,1.30
2023-02-20T11:55:21.904Z,1.50
2023-02-20T11:57:52.278Z,1.20
2023-02-20T12:00:29.093Z,1.30
2023-02-20T12:03:12.555Z,1.10
2023-02-20T12:05:50.146Z,1.30
2023-02-20T12:08:32.608Z,1.50
2023-02-20T12:11:22.740Z,1.50
2023-02-20T12:13:53.208Z,1.20
2023-02-20T12:16:49.319Z,0.90
2023-02-20T12:19:43.770Z,1.00
2023-02-20T12:22:33.229Z,1.00
2023-02-20T12:25:12.039Z,1.10
2023-02-20T12:27:53.566Z,1.20
2023-02-20T12:30:27.832Z,1.40
2023-02-20T12:33:27.830Z,1.20
2023-02-20T12:36:28.425Z,1.00
2023-02-20T12:39:08.356Z,1.50
2023-02-20T12:41:45.719Z,1.10
2023-02-20T12:44:39.165Z,1.00
2023-02-20T12:47:19.689Z,1.00
2023-02-20T12:49:50.814Z,0.90
2023-02-20T12:52:22.016Z,0.70
2023-02-20T12:55:13.249Z,1.30
2023-02-20T12:57:56.693Z,0.90
2023-02-20T13:00:48.108Z,0.90
2023-02-20T13:03:46.088Z,1.20
2023-02-20T13:06:39.730Z,1.00
2023-02-20T13:09:34.083Z,1.10
2023-02-20T13:12:13.908Z,1.00
2023-02-20T13:15:11.292Z,1.00
2023-02-20T13:17:43.923Z,2.50
2023-02-20T13:20:12.298Z,0.80
2023-02-20T13:22:40.816Z,1.10
2023-02-20T13:25:42.754Z,1.20
2023-02-20T13:28:11.203Z,1.00
2023-02-20T13:30:41.305Z,1.20
2023-02-20T13:33:26.220Z,1.30
2023-02-20T13:35:57.207Z,1.10
2023-02-20T13:38:28.860Z,0.90
2023-02-20T13:40:57.284Z,3.40
2023-02-20T13:43:34.306Z,1.70
2023-02-20T13:46:13.846Z,1.40
2023-02-20T13:48:48.440Z,1.20
2023-02-20T13:51:17.049Z,1.40
2023-02-20T13:54:12.704Z,1.40
2023-02-20T13:56:46.588Z,2.70
2023-02-20T13:59:19.196Z,3.00
2023-02-20T14:02:20.394Z,1.40
2023-02-20T14:05:05.160Z,1.20
2023-02-20T14:07:45.790Z,1.20
2023-02-20T14:10:24.744Z,1.30
2023-02-20T14:13:00.812Z,2.30
2023-02-20T14:15:32.898Z,1.00
2023-02-20T14:18:02.067Z,0.90
2023-02-20T14:20:37.993Z,1.30
2023-02-20T14:23:21.353Z,2.30
2023-02-20T14:26:01.821Z,0.90
2023-02-20T14:28:33.516Z,1.80
2023-02-20T14:31:33.766Z,1.20
2023-02-20T14:34:09.756Z,1.30
2023-02-20T14:37:03.338Z,1.10
2023-02-20T14:40:01.429Z,0.90
2023-02-20T14:42:30.336Z,1.20
2023-02-20T14:45:05.412Z,1.10
2023-02-20T14:47:36.015Z,1.30
2023-02-20T14:50:24.698Z,1.10
2023-02-20T14:53:21.308Z,1.30
2023-02-20T14:55:50.517Z,1.40
2023-02-20T14:58:23.643Z,1.30
2023-02-20T15:00:58.376Z,1.10
2023-02-20T15:03:31.697Z,1.30
2023-02-20T15:06:06.221Z,1.20
2023-02-20T15:08:38.191Z,1.40
2023-02-20T15:11:15.474Z,1.20
2023-02-20T15:13:46.627Z,1.20
2023-02-20T15:16:23.566Z,1.10
2023-02-20T15:18:53.160Z,1.80
2023-02-20T15:21:43.613Z,1.70
2023-02-20T15:24:35.460Z,2.20
2023-02-20T15:27:09.333Z,1.50
2023-02-20T15:29:37.891Z,2.50
2023-02-20T15:32:26.528Z,1.90
2023-02-20T15:34:58.707Z,1.90
2023-02-20T15:37:39.129Z,1.30
2023-02-20T15:40:27.939Z,1.10
2023-02-20T15:42:57.389Z,0.90
2023-02-20T15:45:29.383Z,1.10
2023-02-20T15:47:59.016Z,1.40
2023-02-20T15:50:27.676Z,1.20
2023-02-20T15:52:58.980Z,1.10
2023-02-20T15:55:34.464Z,1.00
2023-02-20T15:58:06.408Z,1.00
2023-02-20T16:00:37.058Z,1.10
2023-02-20T16:03:05.677Z,1.20
2023-02-20T16:05:34.397Z,1.20
2023-02-20T16:08:02.941Z,1.20
2023-02-20T16:10:31.605Z,1.10
2023-02-20T16:13:02.516Z,1.00
2023-02-20T16:15:31.090Z,1.10
2023-02-20T16:17:59.537Z,1.30
2023-02-20T16:20:30.546Z,1.10
2023-02-20T16:22:59.138Z,1.00
2023-02-20T16:25:27.648Z,1.10
2023-02-20T16:27:57.108Z,1.20
2023-02-20T16:30:41.092Z,0.90
2023-02-20T16:33:21.058Z,1.10
2023-02-20T16:35:52.580Z,1.20
2023-02-20T16:38:22.160Z,1.00
2023-02-20T16:40:55.368Z,1.10
2023-02-20T16:43:24.619Z,1.00
2023-02-20T16:45:53.042Z,1.20
2023-02-20T16:48:21.891Z,1.20
2023-02-20T16:50:57.598Z,1.10
2023-02-20T16:53:32.373Z,1.20
2023-02-20T16:56:00.927Z,1.20
2023-02-20T16:58:29.404Z,1.20
2023-02-20T17:00:58.355Z,1.40
2023-02-20T17:03:28.072Z,1.40
2023-02-20T17:06:00.035Z,1.80
2023-02-20T17:08:28.614Z,1.70
2023-02-20T17:10:57.103Z,1.50
2023-02-20T17:13:25.679Z,1.20
2023-02-20T17:15:54.267Z,1.40
2023-02-20T17:18:23.019Z,1.30
2023-02-20T17:20:51.629Z,1.20
2023-02-20T17:23:20.042Z,1.50
2023-02-20T17:25:49.107Z,1.30
2023-02-20T17:28:17.635Z,1.10
2023-02-20T17:30:48.368Z,1.60
2023-02-20T17:33:16.776Z,1.20
2023-02-20T17:35:45.995Z,1.30
2023-02-20T17:38:14.919Z,1.30
2023-02-20T17:40:43.360Z,1.30
2023-02-20T17:43:12.309Z,1.30
2023-02-20T17:45:40.836Z,2.20
2023-02-20T17:48:09.282Z,3.10
2023-02-20T17:50:38.203Z,1.40
2023-02-20T17:53:09.472Z,1.60
2023-02-20T17:55:37.998Z,2.10
2023-02-20T17:58:06.480Z,1.60
2023-02-20T18:00:34.947Z,2.00
2023-02-20T18:03:03.557Z,2.00
2023-02-20T18:05:32.384Z,1.90
2023-02-20T18:08:00.821Z,1.70
2023-02-20T18:10:29.726Z,2.20
2023-02-20T18:13:04.490Z,3.30
2023-02-20T18:15:35.877Z,2.70
2023-02-20T18:18:05.705Z,1.50
2023-02-20T18:20:34.200Z,1.60
2023-02-20T18:23:02.908Z,1.40
2023-02-20T18:25:39.956Z,1.60
2023-02-20T18:28:10.446Z,1.50
2023-02-20T18:30:39.646Z,1.50
2023-02-20T18:33:08.995Z,1.30
2023-02-20T18:35:37.804Z,1.40
2023-02-20T18:38:06.966Z,1.20
2023-02-20T18:40:35.853Z,1.90
2023-02-20T18:43:04.340Z,2.20
2023-02-20T18:45:32.878Z,2.10
2023-02-20T18:48:01.340Z,1.60
2023-02-20T18:50:30.306Z,2.30
2023-02-20T18:52:58.865Z,1.70
2023-02-20T18:55:27.419Z,1.60
2023-02-20T18:57:58.314Z,1.60
2023-02-20T19:00:30.217Z,1.40
2023-02-20T19:03:01.283Z,1.30
2023-02-20T19:05:30.824Z,1.20
2023-02-20T19:07:59.419Z,1.00
2023-02-20T19:10:28.092Z,1.60
2023-02-20T19:12:56.844Z,1.60
2023-02-20T19:15:25.491Z,1.40
2023-02-20T19:17:55.090Z,1.30
2023-02-20T19:20:28.897Z,1.40
2023-02-20T19:23:01.010Z,1.20
2023-02-20T19:25:29.675Z,1.00
2023-02-20T19:27:58.093Z,1.30
2023-02-20T19:30:26.608Z,1.70
2023-02-20T19:32:55.538Z,1.50
2023-02-20T19:35:23.961Z,1.50
2023-02-20T19:37:52.418Z,1.30
2023-02-20T19:40:20.886Z,1.50
2023-02-20T19:42:49.402Z,1.60
2023-02-20T19:45:17.861Z,1.40
2023-02-20T19:47:47.103Z,1.20
2023-02-20T19:50:15.878Z,1.30
2023-02-20T19:52:45.482Z,1.20
2023-02-20T19:55:19.594Z,1.20
2023-02-20T19:57:48.276Z,1.40
2023-02-20T20:00:18.780Z,1.80
2023-02-20T20:02:49.016Z,1.30
2023-02-20T20:05:19.248Z,1.40
2023-02-20T20:07:50.675Z,1.20
2023-02-20T20:10:21.399Z,1.80
2023-02-20T20:12:50.766Z,0.90
2023-02-20T20:15:26.897Z,1.20
2023-02-20T20:18:00.166Z,1.10
2023-02-20T20:20:32.264Z,1.00
2023-02-20T20:23:03.144Z,1.40
2023-02-20T20:25:31.891Z,1.20
2023-02-20T20:28:05.139Z,1.30
2023-02-20T20:30:34.430Z,1.30
2023-02-20T20:33:03.120Z,1.60
2023-02-20T20:35:31.738Z,1.30
2023-02-20T20:38:02.174Z,1.70
2023-02-20T20:40:30.757Z,1.60
2023-02-20T20:42:59.534Z,1.20
2023-02-20T20:45:27.984Z,1.60
2023-02-20T20:47:56.594Z,1.10
2023-02-20T20:50:29.032Z,1.10
2023-02-20T20:53:01.216Z,1.60
2023-02-20T20:55:30.274Z,1.10
2023-02-20T20:57:58.708Z,0.90
2023-02-20T21:00:31.568Z,0.90
2023-02-20T21:02:59.973Z,1.00
2023-02-20T21:05:32.298Z,0.90
2023-02-20T21:08:02.264Z,1.20
2023-02-20T21:10:30.760Z,1.10
2023-02-20T21:12:59.274Z,1.60
2023-02-20T21:15:28.301Z,1.20
2023-02-20T21:17:56.846Z,0.80
2023-02-20T21:20:29.777Z,1.30
2023-02-20T21:22:59.944Z,0.80
2023-02-20T21:25:29.007Z,1.10
2023-02-20T21:27:58.712Z,0.70
2023-02-20T21:30:28.149Z,0.90
2023-02-20T21:32:56.825Z,1.00
2023-02-20T21:35:26.417Z,1.00
2023-02-20T21:37:55.003Z,1.20
2023-02-20T21:40:23.568Z,1.00
2023-02-20T21:43:10.572Z,0.70
2023-02-20T21:45:39.115Z,0.80
2023-02-20T21:48:07.711Z,1.00
2023-02-20T21:50:36.337Z,0.90
2023-02-20T21:53:04.994Z,0.90
2023-02-20T21:55:33.395Z,0.70
2023-02-20T21:58:02.362Z,0.80
2023-02-20T22:00:30.874Z,0.80
2023-02-20T22:02:59.705Z,0.80
2023-02-20T22:05:28.408Z,1.10
2023-02-20T22:08:15.742Z,1.00
2023-02-20T22:11:03.065Z,0.70
2023-02-20T22:13:50.333Z,1.00
2023-02-20T22:16:40.578Z,1.30
2023-02-20T22:19:28.068Z,1.10
2023-02-20T22:22:19.811Z,1.10
2023-02-20T22:25:07.080Z,1.10
2023-02-20T22:27:54.075Z,1.20
2023-02-20T22:30:41.069Z,1.20
2023-02-20T22:33:28.139Z,1.40
2023-02-20T22:36:15.090Z,1.10
2023-02-20T22:39:02.364Z,1.30
2023-02-20T22:41:50.226Z,1.00
2023-02-20T22:44:38.227Z,1.00
2023-02-20T22:47:25.151Z,1.40
2023-02-20T22:50:12.298Z,1.20
2023-02-20T22:52:59.468Z,1.40
2023-02-20T22:55:46.539Z,1.20
2023-02-20T22:58:33.703Z,1.20
2023-02-20T23:01:21.001Z,1.10
2023-02-20T23:04:08.135Z,0.80
2023-02-20T23:06:55.223Z,0.80
2023-02-20T23:09:42.274Z,0.90
2023-02-20T23:12:31.998Z,0.80
2023-02-20T23:15:19.002Z,1.10
2023-02-20T23:18:06.183Z,1.10
2023-02-20T23:20:53.325Z,0.70
2023-02-20T23:23:40.329Z,1.10
2023-02-20T23:26:27.609Z,0.80
2023-02-20T23:29:14.762Z,0.80
2023-02-20T23:32:03.681Z,0.80
2023-02-20T23:34:50.793Z,1.00
2023-02-20T23:37:37.953Z,0.70
2023-02-20T23:40:35.998Z,0.90
2023-02-20T23:43:25.513Z,0.90
2023-02-20T23:46:13.410Z,1.20
2023-02-20T23:49:00.480Z,1.00
2023-02-20T23:51:47.589Z,0.90
2023-02-20T23:54:34.557Z,1.00
2023-02-20T23:57:22.125Z,1.00
